logo
Rechercher aéroport 
image banner adimage banner adimage banner ad
image banner ad

SJEV - Evanderto Almeida

Situé à Assare, Brazil

ICAO - SJEV, IATA -

Données fournies par Airmate  

Information générale

Coordonnées: S6°59'21" W39°50'39"
Élévation : 2227 feet MSL.
Variation magnétique : -21.821172477° East
Voir autres Aéroports à Ceará

Données opérationnelles

Special qualification required
Heure actuelle UTC:
Heure actuelle locale:
Météo à : SBJU - Orlando Bezerra De Menezes ( 68 km )
METAR: SBJU 220700Z 00000KT 9999 SCT020 24/23 Q1015
Voir NOTAMs / SUP AIP / TFR affectant cet aéroport [VIEW]
Fréquences de communication: [VIEW]

Pistes:

Identifiant RWYQFULongueur (ft)Largeur (ft)SurfaceLDA (ft)
14328175EARTH
32328175EARTH

Coordonnées de l'aéroport

Adresse: Assare Brazil

Vue satellite de SJEV